Time;durP1;ratioP1;P1;durP2;ratioP2;P2;SDS_P1;SDS_P2;PMS_P1;PMS_P2;Temp;Humidity;BMP_temperature;BMP_pressure;BME280_temperature;BME280_humidity;BME280_pressure;Samples;Min_cycle;Max_cycle;Signal;HPM_P1;HPM_P2
2023/12/18 00:00:29;;;;;;;2.60;0.77;;;;;;;0.40;100.00;99508.28;6269276;28;20207;-43
2023/12/18 00:03:31;;;;;;;0.70;0.57;;;;;;;0.30;100.00;99508.25;6269171;28;20215;-42
2023/12/18 00:06:35;;;;;;;0.60;0.50;;;;;;;0.28;100.00;99506.69;6269401;28;20306;-43
2023/12/18 00:09:39;;;;;;;1.77;0.40;;;;;;;0.25;100.00;99499.94;6240305;28;20822;-43
2023/12/18 00:12:41;;;;;;;0.40;0.40;;;;;;;0.24;100.00;99506.13;6268960;28;20223;-42
2023/12/18 00:15:43;;;;;;;1.37;0.53;;;;;;;0.21;100.00;99512.47;6269419;28;20204;-43
2023/12/18 00:18:46;;;;;;;0.40;0.40;;;;;;;0.15;100.00;99496.44;6268647;28;20199;-44
2023/12/18 00:21:49;;;;;;;1.70;0.40;;;;;;;0.15;100.00;99496.44;6269467;28;20570;-44
2023/12/18 00:24:51;;;;;;;0.53;0.53;;;;;;;0.14;100.00;99494.75;6269022;28;20203;-43
2023/12/18 00:27:53;;;;;;;1.63;0.57;;;;;;;0.16;100.00;99488.44;6268659;28;20207;-43
2023/12/18 00:30:55;;;;;;;1.23;0.93;;;;;;;0.05;100.00;99472.81;6268655;28;20196;-43
2023/12/18 00:33:57;;;;;;;1.07;0.73;;;;;;;0.18;100.00;99491.75;6267280;28;20191;-42
2023/12/18 00:36:59;;;;;;;3.43;0.90;;;;;;;0.01;100.00;99468.78;6268750;28;20199;-43
2023/12/18 00:40:02;;;;;;;1.57;0.90;;;;;;;0.08;100.00;99479.56;6259058;28;20198;-42
2023/12/18 00:43:04;;;;;;;0.67;0.47;;;;;;;0.08;100.00;99480.38;6268045;28;20574;-43
2023/12/18 00:46:06;;;;;;;1.30;0.60;;;;;;;0.00;100.00;99480.22;6248749;28;20955;-44
2023/12/18 00:49:09;;;;;;;0.50;0.47;;;;;;;-0.02;100.00;99476.91;6266946;28;20191;-42
2023/12/18 00:52:11;;;;;;;0.80;0.60;;;;;;;-0.02;100.00;99479.50;6268531;28;20199;-43
2023/12/18 00:55:13;;;;;;;0.70;0.70;;;;;;;-0.01;100.00;99481.16;6267967;28;20338;-43
2023/12/18 00:58:15;;;;;;;1.20;0.30;;;;;;;-0.01;100.00;99473.31;6267136;28;20191;-43
2023/12/18 01:01:18;;;;;;;0.50;0.50;;;;;;;-0.05;100.00;99475.38;6266382;28;20622;-42
2023/12/18 01:04:20;;;;;;;0.50;0.40;;;;;;;-0.03;100.00;99476.06;6267607;28;20686;-43
2023/12/18 01:07:22;;;;;;;1.87;0.50;;;;;;;-0.03;100.00;99476.06;6268021;28;20195;-43
2023/12/18 01:10:24;;;;;;;0.83;0.73;;;;;;;0.04;100.00;99483.41;6266414;28;20203;-43
2023/12/18 01:13:26;;;;;;;1.20;0.60;;;;;;;0.02;100.00;99475.69;6267609;28;20231;-43
2023/12/18 01:16:28;;;;;;;0.50;0.50;;;;;;;0.04;100.00;99480.78;6267424;28;20207;-43
2023/12/18 01:19:30;;;;;;;1.20;0.63;;;;;;;0.05;100.00;99477.19;6265722;28;20666;-43
2023/12/18 01:22:33;;;;;;;0.57;0.57;;;;;;;0.02;100.00;99480.09;6267105;28;20288;-43
2023/12/18 01:25:35;;;;;;;0.53;0.53;;;;;;;0.02;100.00;99480.94;6267452;28;20194;-42
2023/12/18 01:28:37;;;;;;;1.10;0.57;;;;;;;0.03;100.00;99473.88;6267562;28;20218;-43
2023/12/18 01:31:39;;;;;;;0.93;0.67;;;;;;;0.01;100.00;99473.19;6265686;28;20206;-44
2023/12/18 01:34:42;;;;;;;1.10;0.60;;;;;;;0.11;100.00;99472.28;6267303;28;20185;-43
2023/12/18 01:37:44;;;;;;;1.60;0.63;;;;;;;0.12;100.00;99473.09;6264152;28;20192;-42
2023/12/18 01:40:46;;;;;;;0.43;0.43;;;;;;;0.11;100.00;99469.66;6263954;28;20638;-42
2023/12/18 01:43:48;;;;;;;0.60;0.60;;;;;;;0.14;100.00;99464.13;6267182;28;20207;-42
2023/12/18 01:46:51;;;;;;;1.13;0.70;;;;;;;0.25;100.00;99465.88;6266140;28;20194;-42
2023/12/18 01:49:53;;;;;;;0.73;0.67;;;;;;;0.39;100.00;99464.66;6266981;28;20195;-42
2023/12/18 01:52:55;;;;;;;1.70;0.50;;;;;;;0.31;100.00;99460.09;6265151;28;20195;-43
2023/12/18 01:55:57;;;;;;;0.73;0.50;;;;;;;0.29;100.00;99453.31;6266913;28;20203;-43
2023/12/18 01:59:02;;;;;;;0.90;0.50;;;;;;;-0.03;100.00;99363.41;6265509;28;20643;-44
2023/12/18 02:02:04;;;;;;;0.60;0.50;;;;;;;0.64;100.00;99458.94;6265843;28;20195;-46
2023/12/18 02:05:07;;;;;;;1.40;0.43;;;;;;;0.92;100.00;99459.94;6265763;28;20215;-44
2023/12/18 02:08:10;;;;;;;0.77;0.47;;;;;;;1.00;100.00;99456.66;6249353;28;20626;-43
2023/12/18 02:11:12;;;;;;;0.60;0.57;;;;;;;1.11;100.00;99461.75;6265645;28;20238;-43
2023/12/18 02:14:14;;;;;;;0.97;0.37;;;;;;;1.11;100.00;99456.50;6266665;28;20556;-43
2023/12/18 02:17:16;;;;;;;0.57;0.40;;;;;;;1.13;100.00;99456.38;6264568;28;20200;-43
2023/12/18 02:20:18;;;;;;;0.33;0.33;;;;;;;1.19;100.00;99453.22;6265129;28;20267;-42
2023/12/18 02:23:20;;;;;;;0.47;0.40;;;;;;;1.27;100.00;99448.06;6265646;28;20199;-44
2023/12/18 02:26:23;;;;;;;0.60;0.30;;;;;;;1.52;100.00;99441.41;6263626;28;20203;-43
2023/12/18 02:29:25;;;;;;;0.63;0.30;;;;;;;1.88;98.53;99442.47;6266576;28;20249;-44
2023/12/18 02:32:27;;;;;;;0.50;0.47;;;;;;;2.99;87.71;99451.19;6264241;28;20219;-44
2023/12/18 02:35:29;;;;;;;0.20;0.20;;;;;;;3.84;77.81;99447.94;6265807;28;20700;-45
2023/12/18 02:38:32;;;;;;;0.20;0.10;;;;;;;5.70;66.59;99459.16;6264582;28;20197;-44
2023/12/18 02:41:34;;;;;;;0.20;0.17;;;;;;;7.19;59.23;99438.13;6266157;28;20201;-44
2023/12/18 02:44:36;;;;;;;0.17;0.17;;;;;;;8.42;53.33;99432.50;6264887;28;20667;-44
2023/12/18 02:47:38;;;;;;;0.10;0.10;;;;;;;8.77;54.41;99446.00;6265577;28;20208;-45
2023/12/18 02:50:40;;;;;;;0.20;0.20;;;;;;;9.13;50.72;99445.97;6266632;28;20705;-44
2023/12/18 02:53:42;;;;;;;0.10;0.10;;;;;;;9.39;50.41;99434.75;6266059;28;20188;-44
2023/12/18 02:56:44;;;;;;;0.10;0.10;;;;;;;9.84;48.46;99430.00;6248510;28;20582;-44
2023/12/18 02:59:47;;;;;;;0.10;0.10;;;;;;;10.05;47.10;99429.16;6264856;28;20190;-45
2023/12/18 03:02:49;;;;;;;0.37;0.20;;;;;;;10.02;46.17;99429.53;6265554;28;20730;-46
2023/12/18 03:05:52;;;;;;;0.20;0.20;;;;;;;10.31;44.77;99429.31;6266453;28;20198;-46
2023/12/18 03:08:55;;;;;;;0.20;0.20;;;;;;;10.20;46.10;99405.88;6266042;28;20305;-46
2023/12/18 03:11:57;;;;;;;0.10;0.10;;;;;;;10.20;44.54;99411.22;6265345;28;20490;-45
2023/12/18 03:14:59;;;;;;;0.10;0.10;;;;;;;10.31;45.31;99412.50;6266167;28;20192;-45
2023/12/18 03:18:01;;;;;;;0.20;0.20;;;;;;;9.35;51.24;99416.72;6256987;28;20701;-44
2023/12/18 03:21:08;;;;;;;0.33;0.30;;;;;;;7.93;55.75;99392.34;6266123;28;20206;-45
2023/12/18 03:24:10;;;;;;;0.20;0.20;;;;;;;6.98;60.03;99409.59;6265116;28;20210;-44
2023/12/18 03:27:13;;;;;;;0.63;0.20;;;;;;;6.58;61.53;99405.34;6265915;28;20743;-45
2023/12/18 03:30:15;;;;;;;0.30;0.20;;;;;;;5.99;65.34;99397.00;6265886;28;20711;-45
2023/12/18 03:33:17;;;;;;;0.30;0.27;;;;;;;5.52;70.57;99412.78;6246581;28;20292;-46
2023/12/18 03:36:20;;;;;;;1.63;0.30;;;;;;;5.02;73.41;99403.97;6267022;28;20838;-44
2023/12/18 03:39:23;;;;;;;0.30;0.30;;;;;;;4.67;74.78;99399.81;6268559;28;20221;-46
2023/12/18 03:42:25;;;;;;;0.43;0.30;;;;;;;4.46;75.61;99404.69;6270518;28;20210;-45
2023/12/18 03:45:27;;;;;;;0.50;0.30;;;;;;;4.39;76.93;99407.16;6269760;28;20713;-44
2023/12/18 03:48:29;;;;;;;2.00;0.40;;;;;;;4.10;78.89;99407.53;6269807;28;20287;-43
2023/12/18 03:51:32;;;;;;;0.40;0.40;;;;;;;3.84;80.43;99391.72;6251986;28;20771;-45
2023/12/18 03:54:35;;;;;;;0.67;0.40;;;;;;;3.45;81.69;99370.25;6269735;28;20192;-43
2023/12/18 03:57:37;;;;;;;0.87;0.30;;;;;;;3.50;83.97;99403.06;6269741;28;20667;-44
2023/12/18 04:00:39;;;;;;;0.40;0.30;;;;;;;3.32;85.43;99384.66;6269219;28;20199;-44
2023/12/18 04:03:41;;;;;;;0.20;0.20;;;;;;;3.19;87.59;99396.56;6269706;28;20207;-44
2023/12/18 04:06:44;;;;;;;0.20;0.20;;;;;;;3.29;86.57;99398.13;6269807;28;20237;-45
2023/12/18 04:09:46;;;;;;;0.40;0.20;;;;;;;3.07;87.20;99393.34;6269204;28;20609;-44
2023/12/18 04:12:48;;;;;;;0.43;0.27;;;;;;;3.06;88.52;99407.50;6268859;28;20821;-44
2023/12/18 04:15:51;;;;;;;0.30;0.30;;;;;;;2.99;88.06;99377.47;6269871;28;20188;-43
2023/12/18 04:18:53;;;;;;;0.20;0.20;;;;;;;3.00;89.37;99403.63;6269164;28;20196;-44
2023/12/18 04:21:55;;;;;;;0.40;0.30;;;;;;;2.89;91.14;99405.66;6269549;28;20245;-44
2023/12/18 04:24:57;;;;;;;1.80;0.33;;;;;;;2.78;91.04;99404.91;6268225;28;20572;-44
2023/12/18 04:27:59;;;;;;;0.83;0.30;;;;;;;2.76;91.29;99406.06;6269059;28;20192;-44
2023/12/18 04:31:01;;;;;;;1.67;0.30;;;;;;;2.67;93.93;99399.06;6267090;28;20753;-43
2023/12/18 04:34:03;;;;;;;0.57;0.30;;;;;;;2.73;96.34;99404.53;6269080;28;20398;-43
2023/12/18 04:37:06;;;;;;;0.60;0.60;;;;;;;2.76;95.93;99398.16;6268368;28;20197;-44
2023/12/18 04:40:11;;;;;;;0.37;0.37;;;;;;;2.77;95.70;99405.91;6268674;28;20191;-43
2023/12/18 04:43:14;;;;;;;0.40;0.40;;;;;;;2.72;95.58;99402.06;6269237;28;20619;-43
2023/12/18 04:46:16;;;;;;;0.40;0.40;;;;;;;2.63;96.42;99410.84;6266510;28;20199;-43
2023/12/18 04:49:18;;;;;;;0.60;0.60;;;;;;;2.53;97.45;99413.53;6267996;28;20189;-43
2023/12/18 04:52:21;;;;;;;0.83;0.40;;;;;;;2.45;98.10;99414.25;6268449;28;20206;-43
2023/12/18 04:55:24;;;;;;;0.73;0.30;;;;;;;2.36;98.08;99411.69;6268477;28;20655;-43
2023/12/18 04:58:26;;;;;;;0.37;0.37;;;;;;;2.09;98.48;99379.16;6266297;28;20190;-44
2023/12/18 05:01:29;;;;;;;0.40;0.40;;;;;;;2.23;100.00;99410.22;6267433;28;20206;-44
2023/12/18 05:04:31;;;;;;;0.37;0.37;;;;;;;2.15;100.00;99412.75;6268132;28;20664;-46
2023/12/18 05:07:33;;;;;;;0.87;0.60;;;;;;;2.10;100.00;99409.72;6267567;28;20272;-45
2023/12/18 05:10:35;;;;;;;1.20;0.70;;;;;;;2.05;100.00;99406.72;6267960;28;20624;-43
2023/12/18 05:13:37;;;;;;;0.73;0.50;;;;;;;2.02;100.00;99397.31;6267767;28;20264;-44
2023/12/18 05:16:39;;;;;;;0.47;0.47;;;;;;;1.99;100.00;99412.56;6259926;28;20644;-45
2023/12/18 05:19:42;;;;;;;1.67;0.30;;;;;;;2.00;100.00;99417.66;6267928;28;20434;-44
2023/12/18 05:22:44;;;;;;;0.30;0.30;;;;;;;1.98;100.00;99409.09;6247151;28;20216;-44
2023/12/18 05:25:46;;;;;;;0.63;0.30;;;;;;;1.96;100.00;99413.66;6265824;28;20203;-43
2023/12/18 05:28:48;;;;;;;0.40;0.40;;;;;;;1.91;100.00;99410.63;6266925;28;20198;-43
2023/12/18 05:31:50;;;;;;;0.60;0.33;;;;;;;1.73;100.00;99388.72;6265582;28;20209;-44
2023/12/18 05:34:52;;;;;;;0.30;0.30;;;;;;;1.77;100.00;99411.94;6267714;28;20219;-44
2023/12/18 05:37:54;;;;;;;0.40;0.30;;;;;;;1.80;100.00;99409.00;6266615;28;20234;-43
2023/12/18 05:40:56;;;;;;;2.83;0.20;;;;;;;1.81;100.00;99413.28;6266984;28;20250;-43
2023/12/18 05:43:58;;;;;;;0.40;0.20;;;;;;;1.83;100.00;99402.66;6266936;28;20869;-44
2023/12/18 05:47:01;;;;;;;0.20;0.20;;;;;;;1.83;100.00;99401.84;6266384;28;20765;-43
2023/12/18 05:50:03;;;;;;;4.80;0.50;;;;;;;2.11;100.00;99400.88;6267212;28;20566;-43
2023/12/18 05:53:05;;;;;;;2.07;0.27;;;;;;;2.10;100.00;99408.91;6266772;28;20194;-43
2023/12/18 05:56:09;;;;;;;1.03;0.37;;;;;;;2.53;100.00;99390.69;6266750;28;20718;-44
2023/12/18 05:59:11;;;;;;;0.40;0.30;;;;;;;2.78;96.80;99396.19;6267090;28;20197;-43
2023/12/18 06:02:13;;;;;;;0.30;0.30;;;;;;;2.58;97.56;99398.97;6266934;28;20335;-42
2023/12/18 06:05:15;;;;;;;2.00;0.30;;;;;;;2.58;97.68;99396.31;6266377;28;20661;-43
2023/12/18 06:08:17;;;;;;;0.57;0.40;;;;;;;2.53;97.80;99403.00;6266537;28;20277;-43
2023/12/18 06:11:19;;;;;;;0.73;0.30;;;;;;;2.48;98.06;99398.19;6264913;28;20228;-44
2023/12/18 06:14:21;;;;;;;0.60;0.40;;;;;;;2.58;95.42;99398.13;6248786;28;20197;-43
2023/12/18 06:17:24;;;;;;;0.30;0.30;;;;;;;2.91;92.52;99396.66;6266090;28;20196;-44
2023/12/18 06:20:26;;;;;;;0.30;0.30;;;;;;;3.08;91.87;99405.53;6265793;28;20196;-45
2023/12/18 06:23:28;;;;;;;0.50;0.40;;;;;;;3.19;89.33;99409.72;6266321;28;20661;-44
2023/12/18 06:26:30;;;;;;;4.63;0.60;;;;;;;3.28;89.02;99407.00;6266518;28;20204;-43
2023/12/18 06:29:32;;;;;;;0.30;0.30;;;;;;;3.37;88.43;99410.53;6264894;28;20663;-43
2023/12/18 06:32:34;;;;;;;5.13;0.40;;;;;;;3.41;87.13;99411.06;6264905;28;20214;-43
2023/12/18 06:35:36;;;;;;;0.77;0.40;;;;;;;3.42;87.97;99403.00;6264217;28;20270;-42
2023/12/18 06:38:38;;;;;;;0.20;0.20;;;;;;;3.20;89.04;99406.97;6266271;28;20583;-44
2023/12/18 06:41:40;;;;;;;0.37;0.30;;;;;;;3.18;88.36;99403.63;6266048;28;20210;-43
2023/12/18 06:44:42;;;;;;;1.13;0.60;;;;;;;3.18;89.97;99402.81;6263069;28;20224;-42
2023/12/18 06:47:44;;;;;;;0.63;0.47;;;;;;;3.17;89.71;99406.44;6266028;28;20203;-43
2023/12/18 06:50:46;;;;;;;0.50;0.30;;;;;;;3.01;91.56;99404.47;6264830;28;20288;-42
2023/12/18 06:53:50;;;;;;;0.63;0.40;;;;;;;2.87;91.91;99407.63;6246480;28;20853;-43
2023/12/18 06:56:52;;;;;;;0.47;0.30;;;;;;;2.74;93.11;99418.53;6266288;28;20199;-42
2023/12/18 06:59:54;;;;;;;3.43;2.13;;;;;;;2.54;94.07;99407.28;6265752;28;20197;-43
2023/12/18 07:02:56;;;;;;;8.97;5.57;;;;;;;2.39;95.15;99412.22;6265893;28;20210;-42
2023/12/18 07:05:58;;;;;;;7.07;4.63;;;;;;;2.26;96.58;99409.94;6263153;28;20233;-43
2023/12/18 07:09:00;;;;;;;2.43;1.40;;;;;;;2.31;96.94;99417.38;6267387;28;20566;-43
2023/12/18 07:12:02;;;;;;;8.57;4.87;;;;;;;2.14;97.61;99410.28;6270326;28;20651;-43
2023/12/18 07:15:06;;;;;;;7.27;4.47;;;;;;;1.99;99.70;99413.38;6271066;28;20674;-43
2023/12/18 07:18:08;;;;;;;10.20;6.03;;;;;;;1.90;100.00;99405.53;6269817;28;20212;-42
2023/12/18 07:21:10;;;;;;;6.17;4.10;;;;;;;1.89;100.00;99425.72;6269740;28;20197;-44
2023/12/18 07:24:12;;;;;;;5.27;3.23;;;;;;;1.83;100.00;99423.69;6271038;28;20557;-46
2023/12/18 07:27:14;;;;;;;2.20;1.70;;;;;;;1.87;100.00;99432.91;6270215;28;20682;-44
2023/12/18 07:30:17;;;;;;;2.07;1.27;;;;;;;1.84;100.00;99427.94;6270181;28;20672;-44
2023/12/18 07:33:20;;;;;;;1.00;0.70;;;;;;;2.01;100.00;99421.94;6268598;28;20227;-43
2023/12/18 07:36:22;;;;;;;4.57;3.27;;;;;;;2.30;100.00;99427.06;6269569;28;20274;-44
2023/12/18 07:39:24;;;;;;;7.40;4.57;;;;;;;2.40;100.00;99436.72;6267895;28;20276;-43
2023/12/18 07:42:27;;;;;;;9.03;3.40;;;;;;;2.38;100.00;99436.03;6241555;28;20198;-44
2023/12/18 07:45:29;;;;;;;4.63;3.60;;;;;;;2.36;100.00;99430.91;6252094;28;20228;-43
2023/12/18 07:48:32;;;;;;;2.63;1.77;;;;;;;2.36;100.00;99428.28;6270065;28;20275;-44
2023/12/18 07:51:36;;;;;;;3.00;2.33;;;;;;;2.36;100.00;99430.09;6266955;28;20198;-44
2023/12/18 07:54:38;;;;;;;3.17;2.30;;;;;;;2.36;100.00;99415.13;6251700;28;20224;-44
2023/12/18 07:57:42;;;;;;;2.70;2.20;;;;;;;2.32;100.00;99417.25;6269475;28;20221;-44
2023/12/18 08:00:44;;;;;;;2.87;2.00;;;;;;;2.20;100.00;99386.03;6269736;28;20192;-44
2023/12/18 08:03:46;;;;;;;2.00;1.40;;;;;;;2.90;98.89;99412.59;6269669;28;20641;-44
2023/12/18 08:06:52;;;;;;;1.53;1.10;;;;;;;3.52;96.27;99398.47;6269023;28;20202;-46
2023/12/18 08:09:54;;;;;;;0.80;0.80;;;;;;;4.43;90.42;99407.66;6269879;28;20207;-43
2023/12/18 08:12:56;;;;;;;0.73;0.63;;;;;;;4.76;89.40;99406.75;6266007;28;20714;-44
2023/12/18 08:15:58;;;;;;;0.50;0.50;;;;;;;4.92;88.98;99398.84;6269403;28;20267;-43
2023/12/18 08:19:00;;;;;;;0.67;0.37;;;;;;;6.50;74.63;99392.16;6268471;28;20273;-46
2023/12/18 08:22:03;;;;;;;0.30;0.30;;;;;;;7.48;70.64;99415.34;6269201;28;20417;-45
2023/12/18 08:25:06;;;;;;;0.20;0.20;;;;;;;8.18;63.49;99382.31;6269335;28;20210;-44
2023/12/18 08:28:08;;;;;;;0.20;0.20;;;;;;;8.41;68.12;99419.38;6266951;28;20190;-44
2023/12/18 08:31:14;;;;;;;0.30;0.30;;;;;;;7.85;69.99;99409.19;6267028;28;20740;-43
2023/12/18 08:34:16;;;;;;;0.40;0.40;;;;;;;7.69;70.45;99412.00;6268056;28;20766;-44
2023/12/18 08:37:18;;;;;;;0.83;0.40;;;;;;;7.59;72.05;99404.31;6268909;28;20560;-44
2023/12/18 08:40:20;;;;;;;0.50;0.47;;;;;;;7.36;72.81;99412.28;6268843;28;20568;-44
2023/12/18 08:43:22;;;;;;;0.43;0.43;;;;;;;7.35;75.44;99412.47;6268723;28;20249;-44
2023/12/18 08:46:24;;;;;;;0.30;0.30;;;;;;;7.38;73.92;99417.41;6268118;28;20823;-44
2023/12/18 08:49:26;;;;;;;0.20;0.20;;;;;;;8.20;65.82;99415.59;6266935;28;20206;-44
2023/12/18 08:52:28;;;;;;;0.70;0.30;;;;;;;9.16;60.10;99400.41;6268802;28;20192;-44
2023/12/18 08:55:31;;;;;;;0.20;0.20;;;;;;;9.85;57.94;99404.19;6267961;28;21020;-45
2023/12/18 08:58:34;;;;;;;0.40;0.40;;;;;;;10.35;55.09;99402.28;6268184;28;20944;-46
2023/12/18 09:01:37;;;;;;;2.50;1.67;;;;;;;10.19;57.12;99382.09;6268160;28;20643;-45
2023/12/18 09:04:40;;;;;;;0.33;0.20;;;;;;;10.78;51.38;99405.50;6267778;28;20209;-44
2023/12/18 09:07:42;;;;;;;0.40;0.23;;;;;;;11.47;49.31;99404.41;6267656;28;20197;-45
2023/12/18 09:10:44;;;;;;;0.30;0.30;;;;;;;11.44;49.28;99396.81;6267863;28;20235;-46
2023/12/18 09:13:46;;;;;;;0.30;0.20;;;;;;;12.04;48.39;99394.94;6267902;28;20197;-45
2023/12/18 09:16:49;;;;;;;0.30;0.30;;;;;;;12.05;47.29;99391.25;6267804;28;20192;-46
2023/12/18 09:19:51;;;;;;;0.57;0.30;;;;;;;12.07;46.94;99395.34;6267080;28;20261;-45
2023/12/18 09:22:53;;;;;;;0.67;0.20;;;;;;;12.31;46.11;99390.34;6266737;28;20213;-45
2023/12/18 09:25:55;;;;;;;0.30;0.30;;;;;;;12.34;46.48;99389.91;6267495;28;20698;-46
2023/12/18 09:28:59;;;;;;;0.23;0.23;;;;;;;12.45;46.73;99386.59;6267601;28;20199;-45
2023/12/18 09:32:02;;;;;;;0.20;0.20;;;;;;;12.89;43.84;99392.97;6264599;28;20714;-48
2023/12/18 09:35:05;;;;;;;0.30;0.30;;;;;;;13.08;42.54;99369.78;6267226;28;20192;-46
2023/12/18 09:38:07;;;;;;;0.20;0.20;;;;;;;13.23;44.24;99385.56;6264139;28;20225;-47
2023/12/18 09:41:09;;;;;;;1.00;0.40;;;;;;;13.02;46.95;99382.19;6266593;28;20685;-48
2023/12/18 09:44:11;;;;;;;1.10;0.27;;;;;;;12.88;49.42;99380.63;6266949;28;20214;-48
2023/12/18 09:47:14;;;;;;;0.53;0.53;;;;;;;12.65;50.87;99373.94;6266986;28;20195;-47
2023/12/18 09:50:17;;;;;;;0.43;0.43;;;;;;;12.53;51.74;99367.63;6267306;28;20195;-47
2023/12/18 09:53:21;;;;;;;0.20;0.20;;;;;;;12.48;51.10;99369.31;6257186;28;20206;-47
2023/12/18 09:56:24;;;;;;;0.20;0.20;;;;;;;12.30;51.63;99338.75;6263843;28;20200;-48
2023/12/18 09:59:26;;;;;;;0.20;0.20;;;;;;;12.39;53.53;99350.03;6267288;28;20203;-48
2023/12/18 10:02:30;;;;;;;0.30;0.30;;;;;;;12.31;54.85;99360.94;6266706;28;20731;-46
2023/12/18 10:05:32;;;;;;;0.30;0.27;;;;;;;12.32;54.28;99346.56;6266391;28;20203;-49
2023/12/18 10:08:35;;;;;;;0.20;0.20;;;;;;;12.27;54.40;99343.72;6249496;28;20286;-46
2023/12/18 10:11:37;;;;;;;2.50;0.30;;;;;;;12.22;53.97;99341.66;6266106;28;20718;-48
2023/12/18 10:14:39;;;;;;;0.30;0.20;;;;;;;12.33;52.15;99334.84;6267018;28;20198;-47
2023/12/18 10:17:42;;;;;;;0.30;0.30;;;;;;;12.56;48.93;99331.63;6263842;28;20187;-48
2023/12/18 10:20:48;;;;;;;0.20;0.20;;;;;;;12.56;48.70;99302.22;6265611;28;20561;-46
2023/12/18 10:23:52;;;;;;;0.20;0.20;;;;;;;13.07;45.62;99322.69;6266583;28;20268;-46
2023/12/18 10:26:54;;;;;;;0.20;0.20;;;;;;;13.57;41.88;99320.84;6265640;28;20207;-47
2023/12/18 10:29:56;;;;;;;0.20;0.20;;;;;;;13.81;40.74;99321.84;6266695;28;20188;-48
2023/12/18 10:33:03;;;;;;;0.30;0.30;;;;;;;13.84;42.56;99317.88;6263936;28;20337;-48
2023/12/18 10:36:09;;;;;;;0.23;0.23;;;;;;;13.75;44.69;99305.84;6264983;28;20188;-48
2023/12/18 10:39:15;;;;;;;0.30;0.30;;;;;;;14.19;38.82;99300.16;6265662;28;20207;-49
2023/12/18 10:42:35;;;;;;;0.80;0.40;;;;;;;14.18;42.77;99306.56;6265735;28;20227;-47
2023/12/18 10:45:57;;;;;;;1.03;0.33;;;;;;;14.08;45.17;99297.41;6245108;28;20679;-48
2023/12/18 10:49:01;;;;;;;0.23;0.23;;;;;;;14.06;42.65;99302.19;6270864;28;20203;-49
2023/12/18 10:52:05;;;;;;;0.77;0.20;;;;;;;14.23;43.15;99305.06;6253254;28;20225;-48
2023/12/18 10:55:10;;;;;;;0.20;0.20;;;;;;;14.11;45.21;99295.09;6271389;28;20666;-47
2023/12/18 10:58:14;;;;;;;0.20;0.20;;;;;;;13.99;45.03;99294.25;6271006;28;20192;-48
2023/12/18 11:01:17;;;;;;;0.30;0.20;;;;;;;13.88;45.33;99294.97;6252810;28;20200;-47
2023/12/18 11:04:22;;;;;;;0.20;0.20;;;;;;;14.28;42.48;99292.63;6268124;28;20694;-49
2023/12/18 11:07:25;;;;;;;0.53;0.33;;;;;;;14.43;39.50;99292.22;6270791;28;20279;-47
2023/12/18 11:10:27;;;;;;;0.27;0.20;;;;;;;14.36;42.78;99297.69;6270183;28;20324;-47
2023/12/18 11:13:55;;;;;;;0.60;0.33;;;;;;;14.28;39.99;99286.44;6270790;28;20336;-47
2023/12/18 11:17:03;;;;;;;0.20;0.20;;;;;;;14.45;41.12;99285.59;6229898;28;20207;-48
2023/12/18 11:20:08;;;;;;;0.20;0.20;;;;;;;14.09;41.28;99283.81;6269278;28;20202;-49
2023/12/18 11:23:11;;;;;;;0.20;0.20;;;;;;;13.70;44.21;99270.88;6269851;28;20278;-48
2023/12/18 11:26:13;;;;;;;0.20;0.20;;;;;;;13.51;44.50;99267.34;6270727;28;20681;-48
2023/12/18 11:29:43;;;;;;;0.63;0.33;;;;;;;13.36;46.31;99265.84;6270611;28;20647;-49
2023/12/18 11:32:46;;;;;;;0.93;0.57;;;;;;;13.32;45.68;99267.31;6266645;28;20278;-47
2023/12/18 11:35:49;;;;;;;0.33;0.20;;;;;;;13.56;43.46;99273.69;6270221;28;20231;-47
2023/12/18 11:38:51;;;;;;;0.13;0.13;;;;;;;13.65;42.67;99264.31;6269771;28;20202;-47
2023/12/18 11:41:53;;;;;;;0.20;0.20;;;;;;;13.52;45.76;99264.44;6266720;28;20195;-50
2023/12/18 11:45:02;;;;;;;1.03;0.30;;;;;;;13.49;42.64;99267.56;6270409;28;20651;-47
2023/12/18 11:48:05;;;;;;;0.27;0.20;;;;;;;13.39;44.13;99261.91;6270085;28;20200;-51
2023/12/18 11:51:10;;;;;;;0.97;0.30;;;;;;;13.26;44.86;99236.09;6266803;28;20198;-48
2023/12/18 11:54:15;;;;;;;0.20;0.20;;;;;;;13.72;41.72;99250.03;6268932;28;20659;-50
2023/12/18 11:57:21;;;;;;;0.20;0.20;;;;;;;13.60;44.56;99253.47;6268541;28;20198;-49
2023/12/18 12:00:24;;;;;;;0.53;0.20;;;;;;;13.73;43.16;99254.34;6269142;28;20652;-48
2023/12/18 12:03:26;;;;;;;0.30;0.30;;;;;;;13.63;43.83;99252.19;6250355;28;20199;-47
2023/12/18 12:06:28;;;;;;;0.30;0.27;;;;;;;13.56;43.51;99252.25;6269745;28;20211;-48
2023/12/18 12:09:31;;;;;;;0.23;0.23;;;;;;;13.33;45.53;99254.75;6267714;28;20704;-48
2023/12/18 12:12:33;;;;;;;0.20;0.20;;;;;;;13.10;42.17;99223.22;6267395;28;20235;-49
2023/12/18 12:15:35;;;;;;;0.73;0.30;;;;;;;13.25;45.72;99241.66;6269302;28;20203;-47
2023/12/18 12:18:46;;;;;;;0.23;0.23;;;;;;;13.48;41.41;99235.66;6268884;28;20203;-48
2023/12/18 12:21:48;;;;;;;0.30;0.30;;;;;;;13.35;44.49;99242.00;6269203;28;20196;-47
2023/12/18 12:24:50;;;;;;;1.37;0.27;;;;;;;13.22;45.77;99237.56;6268323;28;20357;-49
2023/12/18 12:27:53;;;;;;;0.20;0.20;;;;;;;12.92;47.01;99229.38;6269031;28;20644;-46
2023/12/18 12:30:55;;;;;;;0.53;0.40;;;;;;;12.82;45.77;99216.50;6265711;28;20200;-46
2023/12/18 12:33:57;;;;;;;0.27;0.27;;;;;;;12.75;46.79;99231.75;6268350;28;20191;-47
2023/12/18 12:37:03;;;;;;;0.20;0.20;;;;;;;12.55;47.91;99226.56;6268177;28;20187;-47
2023/12/18 12:40:06;;;;;;;0.83;0.33;;;;;;;12.38;48.41;99228.13;6263373;28;20188;-47
2023/12/18 12:43:10;;;;;;;0.20;0.20;;;;;;;12.48;47.55;99227.66;6268740;28;20187;-47
2023/12/18 12:46:13;;;;;;;0.37;0.37;;;;;;;12.50;43.26;99213.03;6268174;28;20325;-47
2023/12/18 12:49:21;;;;;;;0.77;0.40;;;;;;;12.62;46.25;99215.84;6267794;28;20207;-46
2023/12/18 12:52:28;;;;;;;0.20;0.20;;;;;;;12.14;49.24;99179.75;6268889;28;20187;-47
2023/12/18 12:55:31;;;;;;;0.63;0.30;;;;;;;11.97;49.43;99197.31;6268499;28;20203;-48
2023/12/18 12:58:33;;;;;;;0.63;0.63;;;;;;;11.92;47.63;99193.63;6268637;28;20203;-48
2023/12/18 13:01:36;;;;;;;0.30;0.30;;;;;;;11.76;48.51;99173.56;6268102;28;20658;-47
2023/12/18 13:04:41;;;;;;;0.60;0.30;;;;;;;12.32;46.50;99188.91;6250712;28;20188;-47
2023/12/18 13:07:43;;;;;;;0.60;0.50;;;;;;;12.36;43.74;99192.75;6266544;28;20203;-47
2023/12/18 13:10:45;;;;;;;0.30;0.20;;;;;;;12.79;43.25;99181.34;6267882;28;20206;-47
2023/12/18 13:13:47;;;;;;;0.27;0.27;;;;;;;12.48;46.17;99176.88;6266930;28;20187;-46
2023/12/18 13:16:52;;;;;;;0.33;0.30;;;;;;;12.17;47.74;99175.00;6267732;28;20191;-46
2023/12/18 13:19:54;;;;;;;0.30;0.20;;;;;;;11.80;49.03;99174.78;6250492;28;20206;-48
2023/12/18 13:22:58;;;;;;;0.30;0.27;;;;;;;11.76;46.92;99157.53;6267479;28;20207;-47
2023/12/18 13:26:00;;;;;;;1.03;0.27;;;;;;;11.81;48.69;99171.06;6267364;28;20701;-47
2023/12/18 13:29:02;;;;;;;1.10;0.43;;;;;;;11.55;48.51;99161.31;6267760;28;20679;-47
2023/12/18 13:32:04;;;;;;;0.20;0.20;;;;;;;11.45;49.75;99176.97;6265824;28;20203;-46
2023/12/18 13:35:07;;;;;;;0.40;0.20;;;;;;;11.24;50.07;99170.06;6267556;28;20195;-47
2023/12/18 13:38:09;;;;;;;0.20;0.20;;;;;;;11.07;50.71;99162.47;6267129;28;20663;-46
2023/12/18 13:41:11;;;;;;;0.20;0.20;;;;;;;10.83;52.62;99160.47;6264214;28;20278;-48
2023/12/18 13:44:15;;;;;;;0.40;0.37;;;;;;;10.66;51.83;99156.59;6267557;28;20191;-46
2023/12/18 13:47:17;;;;;;;0.20;0.20;;;;;;;10.45;55.33;99155.78;6266342;28;21062;-46
2023/12/18 13:50:19;;;;;;;0.20;0.20;;;;;;;10.22;55.48;99156.13;6266797;28;20273;-45
2023/12/18 13:53:21;;;;;;;1.37;0.20;;;;;;;10.14;55.03;99164.31;6266872;28;20833;-47
2023/12/18 13:56:26;;;;;;;0.20;0.20;;;;;;;10.02;54.51;99158.78;6267005;28;20713;-47
2023/12/18 13:59:28;;;;;;;0.30;0.20;;;;;;;9.83;56.50;99159.53;6266651;28;20663;-45
2023/12/18 14:02:32;;;;;;;0.30;0.30;;;;;;;9.61;57.17;99158.88;6265413;28;20194;-47
2023/12/18 14:05:34;;;;;;;0.63;0.30;;;;;;;9.41;58.19;99152.63;6266654;28;20575;-45
2023/12/18 14:08:39;;;;;;;0.30;0.30;;;;;;;9.15;60.38;99169.25;6266682;28;20599;-45
2023/12/18 14:11:41;;;;;;;1.53;0.40;;;;;;;9.06;59.68;99163.28;6265942;28;20235;-46
2023/12/18 14:14:43;;;;;;;0.40;0.30;;;;;;;8.81;63.72;99159.44;6248181;28;20833;-45
2023/12/18 14:17:45;;;;;;;0.47;0.47;;;;;;;8.58;63.08;99160.50;6252687;28;20191;-44
2023/12/18 14:20:47;;;;;;;1.37;0.63;;;;;;;8.29;65.68;99161.44;6265438;28;20206;-44
2023/12/18 14:23:49;;;;;;;0.40;0.40;;;;;;;8.19;64.59;99169.72;6265633;28;20195;-45